DFW Airport, Texas
Current Conditions -  °F | °C
As of 1:53 PM on Tuesday 21 Oct 2014 (Local Time) from KDFW Reporting Station
Few Clouds Few Clouds  
Wind Chill: 80°   Ceiling: Unl
Heat Index: 80°   Visibility: 10mi
Dew Point: 53°   Wind: 8mph
Humidity: 39%   Direction: 130°SE
Pressure: 30.05"   Gusts: NA
Location:  32.9°N, 97.03°W
Report Text: KDFW 211853Z 13007KT 10SM FEW250 27/12 A3005 RMK AO2 SLP169 T02670117
Loading
Personal Weather Stations






























Interactive Weather Map
Tropical Storm Tracking
New forecast layout! Learn more

10-Day Weather Forecast

Advertisements
Track Severe Weather on mobile